createdAt,value
2019-06-08T00:01:44.530Z,26.10
2019-06-08T00:04:13.019Z,23.17
2019-06-08T00:06:41.408Z,31.23
2019-06-08T00:09:09.924Z,25.60
2019-06-08T00:11:38.437Z,28.33
2019-06-08T00:14:06.817Z,28.63
2019-06-08T00:16:35.337Z,25.10
2019-06-08T00:19:03.735Z,27.77
2019-06-08T00:21:32.169Z,25.80
2019-06-08T00:24:00.579Z,30.37
2019-06-08T00:26:29.017Z,27.87
2019-06-08T00:28:57.488Z,28.43
2019-06-08T00:31:25.869Z,23.83
2019-06-08T00:33:54.288Z,24.83
2019-06-08T00:36:23.076Z,28.30
2019-06-08T00:38:51.590Z,29.97
2019-06-08T00:41:20.721Z,24.83
2019-06-08T00:43:51.426Z,29.97
2019-06-08T00:46:19.810Z,30.17
2019-06-08T00:48:48.299Z,26.93
2019-06-08T00:51:16.791Z,25.90
2019-06-08T00:53:45.185Z,26.90
2019-06-08T00:56:13.575Z,25.67
2019-06-08T00:58:41.947Z,25.93
2019-06-08T01:01:10.347Z,29.10
2019-06-08T01:03:38.765Z,25.83
2019-06-08T01:06:07.149Z,25.40
2019-06-08T01:08:35.535Z,26.67
2019-06-08T01:11:03.959Z,24.80
2019-06-08T01:13:32.347Z,32.70
2019-06-08T01:16:00.723Z,29.30
2019-06-08T01:18:29.381Z,27.03
2019-06-08T01:20:57.811Z,25.43
2019-06-08T01:23:26.217Z,27.70
2019-06-08T01:25:54.621Z,25.63
2019-06-08T01:28:23.956Z,24.37
2019-06-08T01:30:52.431Z,25.43
2019-06-08T01:33:20.782Z,24.20
2019-06-08T01:35:49.193Z,29.63
2019-06-08T01:38:17.589Z,25.30
2019-06-08T01:40:45.965Z,27.77
2019-06-08T01:43:14.397Z,29.20
2019-06-08T01:45:42.772Z,24.80
2019-06-08T01:48:19.950Z,26.13
2019-06-08T01:50:41.217Z,24.90
2019-06-08T01:53:09.600Z,34.97
2019-06-08T01:55:37.983Z,28.83
2019-06-08T01:58:06.379Z,26.03
2019-06-08T02:00:39.289Z,27.73
2019-06-08T02:03:04.832Z,26.70
2019-06-08T02:05:34.457Z,25.53
2019-06-08T02:08:02.917Z,28.23
2019-06-08T02:10:31.311Z,31.37
2019-06-08T02:12:59.693Z,30.53
2019-06-08T02:15:29.716Z,24.47
2019-06-08T02:17:58.096Z,35.43
2019-06-08T02:20:26.498Z,32.47
2019-06-08T02:22:54.896Z,27.10
2019-06-08T02:25:29.247Z,29.33
2019-06-08T02:27:57.832Z,26.00
2019-06-08T02:30:30.510Z,31.67
2019-06-08T02:32:59.424Z,29.53
2019-06-08T02:35:28.004Z,31.20
2019-06-08T02:37:56.386Z,27.57
2019-06-08T02:40:24.785Z,28.00
2019-06-08T02:42:53.171Z,24.13
2019-06-08T02:45:21.577Z,29.73
2019-06-08T02:47:50.003Z,25.40
2019-06-08T02:50:21.636Z,27.40
2019-06-08T02:52:50.021Z,29.40
2019-06-08T02:55:18.460Z,27.00
2019-06-08T02:57:46.845Z,34.90
2019-06-08T03:00:15.238Z,34.30
2019-06-08T03:02:43.823Z,33.50
2019-06-08T03:05:12.213Z,28.03
2019-06-08T03:07:42.438Z,36.10
2019-06-08T03:10:12.145Z,28.47
2019-06-08T03:12:42.463Z,27.50
2019-06-08T03:15:10.540Z,31.37
2019-06-08T03:17:40.024Z,26.93
2019-06-08T03:20:08.968Z,28.30
2019-06-08T03:22:40.831Z,30.97
2019-06-08T03:25:07.414Z,30.53
2019-06-08T03:27:37.306Z,28.80
2019-06-08T03:30:16.018Z,33.13
2019-06-08T03:32:44.687Z,30.27
2019-06-08T03:35:07.221Z,28.53
2019-06-08T03:37:35.802Z,32.67
2019-06-08T03:40:05.056Z,34.70
2019-06-08T03:42:33.442Z,30.37
2019-06-08T03:45:01.844Z,31.50
2019-06-08T03:47:30.222Z,29.40
2019-06-08T03:49:58.620Z,36.30
2019-06-08T03:52:27.028Z,35.20
2019-06-08T03:54:55.407Z,26.40
2019-06-08T03:57:23.817Z,25.10
2019-06-08T03:59:52.222Z,30.97
2019-06-08T04:02:20.620Z,33.93
2019-06-08T04:04:50.015Z,28.13
2019-06-08T04:07:18.559Z,30.93
2019-06-08T04:09:46.940Z,27.83
2019-06-08T04:12:15.374Z,28.97
2019-06-08T04:14:44.548Z,25.77
2019-06-08T04:17:13.780Z,24.03
2019-06-08T04:20:04.395Z,27.33
2019-06-08T04:22:12.220Z,26.67
2019-06-08T04:24:42.320Z,27.97
2019-06-08T04:27:10.652Z,28.10
2019-06-08T04:29:39.605Z,27.53
2019-06-08T04:32:08.055Z,26.90
2019-06-08T04:34:36.442Z,27.03
2019-06-08T04:37:04.841Z,30.63
2019-06-08T04:39:33.265Z,24.17
2019-06-08T04:42:01.661Z,27.97
2019-06-08T04:44:30.028Z,32.07
2019-06-08T04:46:58.434Z,27.63
2019-06-08T04:49:26.814Z,21.07
2019-06-08T04:51:55.192Z,26.70
2019-06-08T04:54:23.595Z,24.33
2019-06-08T04:56:51.971Z,25.30
2019-06-08T04:59:20.377Z,29.10
2019-06-08T05:01:49.283Z,30.80
2019-06-08T05:04:17.865Z,28.07
2019-06-08T05:06:47.219Z,33.40
2019-06-08T05:09:15.636Z,22.67
2019-06-08T05:11:45.269Z,26.77
2019-06-08T05:14:13.774Z,23.30
2019-06-08T05:16:43.158Z,26.87
2019-06-08T05:19:12.415Z,25.93
2019-06-08T05:21:41.601Z,23.03
2019-06-08T05:24:10.076Z,22.77
2019-06-08T05:26:39.250Z,20.40
2019-06-08T05:29:07.815Z,20.47
2019-06-08T05:31:36.276Z,22.23
2019-06-08T05:34:04.722Z,26.97
2019-06-08T05:36:33.114Z,24.73
2019-06-08T05:39:01.558Z,22.45
2019-06-08T05:41:29.999Z,26.07
2019-06-08T05:43:58.388Z,22.60
2019-06-08T05:46:26.783Z,24.50
2019-06-08T05:48:55.187Z,24.90
2019-06-08T05:51:23.583Z,22.05
2019-06-08T05:53:52.003Z,27.02
2019-06-08T05:56:20.402Z,18.87
2019-06-08T05:58:50.164Z,26.85
2019-06-08T06:01:18.812Z,28.20
2019-06-08T06:03:48.622Z,27.93
2019-06-08T06:06:17.071Z,25.35
2019-06-08T06:08:46.586Z,19.65
2019-06-08T06:11:14.981Z,22.07
2019-06-08T06:13:43.377Z,20.88
2019-06-08T06:16:11.827Z,25.92
2019-06-08T06:18:40.950Z,18.98
2019-06-08T06:21:11.615Z,22.42
2019-06-08T06:23:39.543Z,19.07
2019-06-08T06:26:07.925Z,17.65
2019-06-08T06:28:36.307Z,20.43
2019-06-08T06:31:04.752Z,25.15
2019-06-08T06:33:33.137Z,23.75
2019-06-08T06:36:01.511Z,22.45
2019-06-08T06:38:29.933Z,24.50
2019-06-08T06:40:58.355Z,23.73
2019-06-08T06:43:26.721Z,18.65
2019-06-08T06:45:55.128Z,23.57
2019-06-08T06:48:23.806Z,20.55
2019-06-08T06:50:52.579Z,21.82
2019-06-08T06:53:21.009Z,19.57
2019-06-08T06:55:49.390Z,19.37
2019-06-08T06:58:17.840Z,13.80
2019-06-08T07:00:47.430Z,16.95
2019-06-08T07:03:15.935Z,19.02
2019-06-08T07:05:44.316Z,19.55
2019-06-08T07:08:12.749Z,18.95
2019-06-08T07:10:41.130Z,24.25
2019-06-08T07:13:09.523Z,20.02
2019-06-08T07:15:41.863Z,17.73
2019-06-08T07:18:07.976Z,26.07
2019-06-08T07:20:36.366Z,16.55
2019-06-08T07:23:06.011Z,20.97
2019-06-08T07:25:34.395Z,16.67
2019-06-08T07:28:02.771Z,20.10
2019-06-08T07:30:31.191Z,22.50
2019-06-08T07:32:59.589Z,18.05
2019-06-08T07:35:28.000Z,19.90
2019-06-08T07:37:56.387Z,17.15
2019-06-08T07:40:24.791Z,20.52
2019-06-08T07:42:54.861Z,18.05
2019-06-08T07:45:23.217Z,21.02
2019-06-08T07:47:52.033Z,21.52
2019-06-08T07:50:20.365Z,16.85
2019-06-08T07:52:49.919Z,16.60
2019-06-08T07:55:18.847Z,16.48
2019-06-08T07:57:48.579Z,17.57
2019-06-08T08:00:17.273Z,20.80
2019-06-08T08:02:45.695Z,20.48
2019-06-08T08:05:14.080Z,17.45
2019-06-08T08:07:42.479Z,15.95
2019-06-08T08:10:10.959Z,14.13
2019-06-08T08:12:39.331Z,22.32
2019-06-08T08:15:07.708Z,19.25
2019-06-08T08:17:36.096Z,18.40
2019-06-08T08:20:07.525Z,19.85
2019-06-08T08:22:38.003Z,15.35
2019-06-08T08:25:08.199Z,15.23
2019-06-08T08:27:37.536Z,13.15
2019-06-08T08:30:08.373Z,13.22
2019-06-08T08:32:38.038Z,14.93
2019-06-08T08:35:08.758Z,15.38
2019-06-08T08:37:38.086Z,15.18
2019-06-08T08:40:08.510Z,18.50
2019-06-08T08:42:38.756Z,22.40
2019-06-08T08:45:08.629Z,14.93
2019-06-08T08:47:38.711Z,16.42
2019-06-08T08:50:07.489Z,14.33
2019-06-08T08:52:39.873Z,16.75
2019-06-08T08:55:08.105Z,13.88
2019-06-08T08:57:38.535Z,14.43
2019-06-08T09:00:08.514Z,16.52
2019-06-08T09:02:37.453Z,15.10
2019-06-08T09:05:08.358Z,13.03
2019-06-08T09:07:38.253Z,17.07
2019-06-08T09:10:08.570Z,14.45
2019-06-08T09:12:37.702Z,14.78
2019-06-08T09:15:08.553Z,18.27
2019-06-08T09:17:38.826Z,18.00
2019-06-08T09:20:08.874Z,14.05
2019-06-08T09:22:50.170Z,22.40
2019-06-08T09:25:08.774Z,17.00
2019-06-08T09:27:38.278Z,18.52
2019-06-08T09:30:08.351Z,15.65
2019-06-08T09:32:38.186Z,15.53
2019-06-08T09:35:09.103Z,17.05
2019-06-08T09:37:37.588Z,18.02
2019-06-08T09:40:06.072Z,13.95
2019-06-08T09:42:34.522Z,14.73
2019-06-08T09:45:05.515Z,16.73
2019-06-08T09:47:33.812Z,13.83
2019-06-08T09:50:04.488Z,17.12
2019-06-08T09:52:32.338Z,15.00
2019-06-08T09:55:03.938Z,11.35
2019-06-08T09:57:30.781Z,17.12
2019-06-08T10:00:02.173Z,11.18
2019-06-08T10:02:29.225Z,15.85
2019-06-08T10:05:00.720Z,15.63
2019-06-08T10:07:28.609Z,9.85
2019-06-08T10:10:00.345Z,15.72
2019-06-08T10:12:28.213Z,12.80
2019-06-08T10:14:56.765Z,14.18
2019-06-08T10:17:27.760Z,11.63
2019-06-08T10:19:57.910Z,12.45
2019-06-08T10:22:25.255Z,15.95
2019-06-08T10:24:55.316Z,11.80
2019-06-08T10:27:23.682Z,10.72
2019-06-08T10:29:52.094Z,15.38
2019-06-08T10:32:22.295Z,11.97
2019-06-08T10:34:50.666Z,17.45
2019-06-08T10:37:19.101Z,14.05
2019-06-08T10:39:47.887Z,18.57
2019-06-08T10:42:18.028Z,12.75
2019-06-08T10:44:46.613Z,15.18
2019-06-08T10:47:14.982Z,12.35
2019-06-08T10:49:43.367Z,11.55
2019-06-08T10:52:12.295Z,12.68
2019-06-08T10:54:40.944Z,13.10
2019-06-08T10:57:09.929Z,13.83
2019-06-08T10:59:40.269Z,11.55
2019-06-08T11:02:13.476Z,16.32
2019-06-08T11:04:39.192Z,17.73
2019-06-08T11:07:15.335Z,17.62
2019-06-08T11:09:38.650Z,21.15
2019-06-08T11:12:11.186Z,28.00
2019-06-08T11:14:38.247Z,21.05
2019-06-08T11:17:09.389Z,30.72
2019-06-08T11:19:37.649Z,14.95
2019-06-08T11:22:12.159Z,14.63
2019-06-08T11:24:38.616Z,19.80
2019-06-08T11:27:08.238Z,16.05
2019-06-08T11:29:38.397Z,17.07
2019-06-08T11:32:09.316Z,18.00
2019-06-08T11:34:37.648Z,15.20
2019-06-08T11:37:09.365Z,14.73
2019-06-08T11:39:38.202Z,13.25
2019-06-08T11:42:09.853Z,13.30
2019-06-08T11:44:38.779Z,10.00
2019-06-08T11:47:09.742Z,13.20
2019-06-08T11:49:36.902Z,14.07
2019-06-08T11:52:06.714Z,10.98
2019-06-08T11:54:40.036Z,10.45
2019-06-08T11:57:05.430Z,13.83
2019-06-08T11:59:33.827Z,12.98
2019-06-08T12:02:03.444Z,13.40
2019-06-08T12:04:31.944Z,11.13
2019-06-08T12:07:00.320Z,13.00
2019-06-08T12:09:28.801Z,11.35
2019-06-08T12:11:58.081Z,12.63
2019-06-08T12:14:26.645Z,13.68
2019-06-08T12:16:55.075Z,13.35
2019-06-08T12:19:23.459Z,12.65
2019-06-08T12:21:51.847Z,11.38
2019-06-08T12:24:20.541Z,16.40
2019-06-08T12:26:54.808Z,13.98
2019-06-08T12:29:19.086Z,10.55
2019-06-08T12:31:47.751Z,13.62
2019-06-08T12:34:18.302Z,12.95
2019-06-08T12:36:48.097Z,11.83
2019-06-08T12:39:19.055Z,12.82
2019-06-08T12:41:47.895Z,16.42
2019-06-08T12:44:17.397Z,15.70
2019-06-08T12:46:48.462Z,15.50
2019-06-08T12:49:18.665Z,15.75
2019-06-08T12:51:50.690Z,20.12
2019-06-08T12:54:18.954Z,11.75
2019-06-08T12:56:47.971Z,11.12
2019-06-08T12:59:20.853Z,15.43
2019-06-08T13:01:48.435Z,17.62
2019-06-08T13:04:21.360Z,13.30
2019-06-08T13:06:48.339Z,12.23
2019-06-08T13:09:18.883Z,12.58
2019-06-08T13:11:50.481Z,15.20
2019-06-08T13:14:19.024Z,9.55
2019-06-08T13:16:48.931Z,10.48
2019-06-08T13:19:17.380Z,10.75
2019-06-08T13:21:45.877Z,10.40
2019-06-08T13:24:15.102Z,12.43
2019-06-08T13:26:43.683Z,8.45
2019-06-08T13:29:12.549Z,11.60
2019-06-08T13:31:42.127Z,13.93
2019-06-08T13:34:12.773Z,11.22
2019-06-08T13:36:42.318Z,8.75
2019-06-08T13:39:11.605Z,9.58
2019-06-08T13:41:40.486Z,10.55
2019-06-08T13:44:08.908Z,9.70
2019-06-08T13:46:37.946Z,8.20
2019-06-08T13:49:08.285Z,9.50
2019-06-08T13:51:38.435Z,10.15
2019-06-08T13:54:08.342Z,7.58
2019-06-08T13:56:38.484Z,9.05
2019-06-08T13:59:07.953Z,8.45
2019-06-08T14:01:37.817Z,7.92
2019-06-08T14:04:08.787Z,11.95
2019-06-08T14:06:36.437Z,9.73
2019-06-08T14:09:08.309Z,11.65
2019-06-08T14:11:36.552Z,8.23
2019-06-08T14:14:04.984Z,10.28
2019-06-08T14:16:33.315Z,8.68
2019-06-08T14:19:01.732Z,16.17
2019-06-08T14:21:38.781Z,18.12
2019-06-08T14:24:00.141Z,14.87
2019-06-08T14:26:29.632Z,35.25
2019-06-08T14:29:00.779Z,28.73
2019-06-08T14:31:31.545Z,26.45
2019-06-08T14:33:58.275Z,13.10
2019-06-08T14:36:28.668Z,17.52
2019-06-08T14:39:02.020Z,15.88
2019-06-08T14:41:29.293Z,10.85
2019-06-08T14:43:58.610Z,11.78
2019-06-08T14:46:28.757Z,11.45
2019-06-08T14:48:58.432Z,12.95
2019-06-08T14:51:30.143Z,10.63
2019-06-08T14:53:58.692Z,15.48
2019-06-08T14:56:29.667Z,15.43
2019-06-08T14:58:57.608Z,15.65
2019-06-08T15:01:29.696Z,14.18
2019-06-08T15:03:58.584Z,15.30
2019-06-08T15:06:31.066Z,13.90
2019-06-08T15:08:58.231Z,15.55
2019-06-08T15:11:28.825Z,17.20
2019-06-08T15:13:58.651Z,17.60
2019-06-08T15:16:30.122Z,16.05
2019-06-08T15:19:00.093Z,17.50
2019-06-08T15:21:30.123Z,21.23
2019-06-08T15:23:57.895Z,16.20
2019-06-08T15:26:35.895Z,15.28
2019-06-08T15:28:58.592Z,14.35
2019-06-08T15:31:29.519Z,17.67
2019-06-08T15:33:56.624Z,22.73
2019-06-08T15:36:25.194Z,19.65
2019-06-08T15:38:53.774Z,22.02
2019-06-08T15:41:24.270Z,20.30
2019-06-08T15:43:52.180Z,21.42
2019-06-08T15:46:20.623Z,18.07
2019-06-08T15:48:48.996Z,17.30
2019-06-08T15:51:17.416Z,21.30
2019-06-08T15:53:47.741Z,20.27
2019-06-08T15:56:15.828Z,17.67
2019-06-08T15:58:44.260Z,18.43
2019-06-08T16:01:14.732Z,16.52
2019-06-08T16:03:42.791Z,19.42
2019-06-08T16:06:11.405Z,21.37
2019-06-08T16:08:39.969Z,19.87
2019-06-08T16:11:08.575Z,24.80
2019-06-08T16:13:36.956Z,18.63
2019-06-08T16:16:05.512Z,21.65
2019-06-08T16:18:33.904Z,20.77
2019-06-08T16:21:02.316Z,20.65
2019-06-08T16:23:31.832Z,23.92
2019-06-08T16:26:00.336Z,19.55
2019-06-08T16:28:29.839Z,18.25
2019-06-08T16:30:58.255Z,23.00
2019-06-08T16:33:27.302Z,24.77
2019-06-08T16:35:56.114Z,25.25
2019-06-08T16:38:24.585Z,22.62
2019-06-08T16:40:53.812Z,24.07
2019-06-08T16:43:22.414Z,23.20
2019-06-08T16:45:51.128Z,26.00
2019-06-08T16:48:19.800Z,27.13
2019-06-08T16:50:48.366Z,27.55
2019-06-08T16:53:16.975Z,25.10
2019-06-08T16:55:45.433Z,29.12
2019-06-08T16:58:13.777Z,23.20
2019-06-08T17:00:42.464Z,30.10
2019-06-08T17:03:10.950Z,25.40
2019-06-08T17:05:39.366Z,25.25
2019-06-08T17:08:07.724Z,24.52
2019-06-08T17:10:36.897Z,27.30
2019-06-08T17:13:05.432Z,27.35
2019-06-08T17:15:34.108Z,28.10
2019-06-08T17:18:02.857Z,29.40
2019-06-08T17:20:32.057Z,30.17
2019-06-08T17:23:00.520Z,27.77
2019-06-08T17:25:28.911Z,25.48
2019-06-08T17:27:58.580Z,22.37
2019-06-08T17:30:26.916Z,21.42
2019-06-08T17:32:55.312Z,16.27
2019-06-08T17:35:23.696Z,19.32
2019-06-08T17:37:52.091Z,17.62
2019-06-08T17:40:20.500Z,17.80
2019-06-08T17:42:48.959Z,30.00
2019-06-08T17:45:17.340Z,14.00
2019-06-08T17:47:45.804Z,16.80
2019-06-08T17:50:14.277Z,15.10
2019-06-08T17:52:43.066Z,19.60
2019-06-08T17:55:11.724Z,20.30
2019-06-08T17:57:48.515Z,18.42
2019-06-08T18:00:11.982Z,15.33
2019-06-08T18:02:43.375Z,19.50
2019-06-08T18:05:10.961Z,16.25
2019-06-08T18:07:41.969Z,23.57
2019-06-08T18:10:10.098Z,15.47
2019-06-08T18:12:41.193Z,19.13
2019-06-08T18:15:09.098Z,14.90
2019-06-08T18:17:40.147Z,15.10
2019-06-08T18:20:13.236Z,18.27
2019-06-08T18:22:44.416Z,15.70
2019-06-08T18:25:11.721Z,21.17
2019-06-08T18:27:42.395Z,16.30
2019-06-08T18:30:11.728Z,16.10
2019-06-08T18:32:41.831Z,22.87
2019-06-08T18:35:10.544Z,16.10
2019-06-08T18:37:40.907Z,15.73
2019-06-08T18:40:10.052Z,22.57
2019-06-08T18:42:40.014Z,15.80
2019-06-08T18:45:08.525Z,15.70
2019-06-08T18:47:38.794Z,14.80
2019-06-08T18:50:09.056Z,17.57
2019-06-08T18:52:40.574Z,13.50
2019-06-08T18:55:08.331Z,21.20
2019-06-08T18:57:38.462Z,20.10
2019-06-08T19:00:11.803Z,14.57
2019-06-08T19:02:41.974Z,20.53
2019-06-08T19:05:10.252Z,18.90
2019-06-08T19:07:39.146Z,17.33
2019-06-08T19:10:07.667Z,15.03
2019-06-08T19:12:38.351Z,12.83
2019-06-08T19:15:11.094Z,16.47
2019-06-08T19:17:39.754Z,17.23
2019-06-08T19:20:06.659Z,16.00
2019-06-08T19:22:35.076Z,14.77
2019-06-08T19:25:04.307Z,13.60
2019-06-08T19:27:32.681Z,17.77
2019-06-08T19:30:01.073Z,17.90
2019-06-08T19:32:29.512Z,14.67
2019-06-08T19:34:58.106Z,19.50
2019-06-08T19:37:28.057Z,17.60
2019-06-08T19:39:57.700Z,17.07
2019-06-08T19:42:37.077Z,12.83
2019-06-08T19:45:04.871Z,14.27
2019-06-08T19:47:27.282Z,18.17
2019-06-08T19:49:57.758Z,15.70
2019-06-08T19:52:26.148Z,10.63
2019-06-08T19:54:54.721Z,14.37
2019-06-08T19:57:23.152Z,13.27
2019-06-08T19:59:51.524Z,14.17
2019-06-08T20:02:19.930Z,18.33
2019-06-08T20:04:48.928Z,7.20
2019-06-08T20:07:17.844Z,11.73
2019-06-08T20:09:48.183Z,6.83
2019-06-08T20:12:18.455Z,5.77
2019-06-08T20:14:48.426Z,6.80
2019-06-08T20:17:17.214Z,6.73
2019-06-08T20:19:48.010Z,4.40
2019-06-08T20:22:18.301Z,6.77
2019-06-08T20:24:51.445Z,10.33
2019-06-08T20:27:17.311Z,7.90
2019-06-08T20:29:47.863Z,7.37
2019-06-08T20:32:18.008Z,7.37
2019-06-08T20:34:49.040Z,9.43
2019-06-08T20:37:17.564Z,9.67
2019-06-08T20:39:59.276Z,11.60
2019-06-08T20:42:17.342Z,10.43
2019-06-08T20:44:46.675Z,4.63
2019-06-08T20:47:17.916Z,5.30
2019-06-08T20:49:48.905Z,8.83
2019-06-08T20:52:17.790Z,9.97
2019-06-08T20:54:48.966Z,6.93
2019-06-08T20:57:17.034Z,5.93
2019-06-08T20:59:45.692Z,6.33
2019-06-08T21:02:14.082Z,9.93
2019-06-08T21:04:44.460Z,6.90
2019-06-08T21:07:12.528Z,4.80
2019-06-08T21:09:40.904Z,8.73
2019-06-08T21:12:09.281Z,3.97
2019-06-08T21:14:37.989Z,6.03
2019-06-08T21:17:07.605Z,7.83
2019-06-08T21:19:36.161Z,10.03
2019-06-08T21:22:04.552Z,6.77
2019-06-08T21:24:32.993Z,6.73
2019-06-08T21:27:01.394Z,9.73
2019-06-08T21:29:46.892Z,4.13
2019-06-08T21:32:02.283Z,12.40
2019-06-08T21:34:29.856Z,4.97
2019-06-08T21:37:00.670Z,3.90
2019-06-08T21:39:28.486Z,5.17
2019-06-08T21:42:01.344Z,5.80
2019-06-08T21:44:27.850Z,7.67
2019-06-08T21:47:00.779Z,11.60
2019-06-08T21:49:27.681Z,4.27
2019-06-08T21:51:58.854Z,7.53
2019-06-08T21:54:27.248Z,9.67
2019-06-08T21:56:58.912Z,8.77
2019-06-08T21:59:25.683Z,11.57
2019-06-08T22:01:55.054Z,9.90
2019-06-08T22:04:24.106Z,9.90
2019-06-08T22:06:52.513Z,3.93
2019-06-08T22:09:20.904Z,13.60
2019-06-08T22:11:50.934Z,5.33
2019-06-08T22:14:19.352Z,5.37
2019-06-08T22:16:47.784Z,6.50
2019-06-08T22:19:17.939Z,7.70
2019-06-08T22:21:48.004Z,11.73
2019-06-08T22:24:17.169Z,4.17
2019-06-08T22:26:45.620Z,10.73
2019-06-08T22:29:14.023Z,6.83
2019-06-08T22:31:42.402Z,4.93
2019-06-08T22:34:10.804Z,6.77
2019-06-08T22:36:39.216Z,10.80
2019-06-08T22:39:08.262Z,9.87
2019-06-08T22:41:37.267Z,11.50
2019-06-08T22:44:08.102Z,6.93
2019-06-08T22:46:37.526Z,6.50
2019-06-08T22:49:07.833Z,5.00
2019-06-08T22:51:38.078Z,7.07
2019-06-08T22:54:08.006Z,5.97
2019-06-08T22:56:37.222Z,8.13
2019-06-08T22:59:06.795Z,7.33
2019-06-08T23:01:38.220Z,6.27
2019-06-08T23:04:08.708Z,9.67
2019-06-08T23:06:38.472Z,7.20
2019-06-08T23:09:08.703Z,7.60
2019-06-08T23:11:37.675Z,11.60
2019-06-08T23:14:12.766Z,5.70
2019-06-08T23:16:36.112Z,6.27
2019-06-08T23:19:05.189Z,7.57
2019-06-08T23:21:33.604Z,8.27
2019-06-08T23:24:02.869Z,6.13
2019-06-08T23:26:32.068Z,8.03
2019-06-08T23:29:00.448Z,6.43
2019-06-08T23:31:29.179Z,7.70
2019-06-08T23:34:00.329Z,6.90
2019-06-08T23:36:46.514Z,6.47
2019-06-08T23:38:59.000Z,4.80
2019-06-08T23:41:27.594Z,7.67
2019-06-08T23:43:57.368Z,8.27
2019-06-08T23:46:27.340Z,5.33
2019-06-08T23:48:58.912Z,4.13
2019-06-08T23:51:27.518Z,7.47
2019-06-08T23:53:58.298Z,6.80
2019-06-08T23:56:27.788Z,6.47
2019-06-08T23:58:56.334Z,4.90
